Stations météo

réclame
Mon MeteoGroup
Grenoble le Versoud, France (7487): Température de l'air & dewpoint: 23.09.2020 23:00:00 - 29.09.2020 23:00:00 (CEST)Grenoble le Versoud, France (7487): Vitesse du vent & gusts: 23.09.2020 23:00:00 - 29.09.2020 23:00:00 (CEST)Grenoble le Versoud, France (7487): Direction du vent: 23.09.2020 23:00:00 - 29.09.2020 23:00:00 (CEST)Grenoble le Versoud, France (7487): reduced air pressure: 23.09.2020 23:00:00 - 29.09.2020 23:00:00 (CEST)Grenoble le Versoud, France (7487): Quantités de précipitations: 23.09.2020 23:00:00 - 29.09.2020 23:00:00 (CEST)
Date & Time tt [°C] td [°C] ff [km/h] ff [knt] fx [km/h] fx [knt] dd ppp [hPa] rr [mm]
29.09.2020 23:00:00 - - - - - - - - -
29.09.2020 22:00:00 15,0 12,1 2 1 4 2 S 1018,7 0,0
29.09.2020 21:00:00 15,2 12,9 2 1 5 3 N 1018,6 0,0
29.09.2020 20:00:00 15,5 11,7 0 0 5 3 N 1018,5 0,0
29.09.2020 19:00:00 16,7 11,4 0 0 13 7 N 1018,1 0,0
29.09.2020 18:00:00 17,3 11,6 8 4 15 8 SW 1017,9 0,0
29.09.2020 17:00:00 17,5 11,1 11 6 16 9 SSW 1018,0 -
29.09.2020 16:00:00 18,0 11,1 5 3 15 8 WSW 1018,0 0,0
29.09.2020 15:00:00 19,3 11,1 8 4 18 10 WSW 1018,2 0,0
29.09.2020 14:00:00 17,8 10,7 9 5 16 9 WSW 1019,2 0,0
29.09.2020 13:00:00 17,0 10,6 8 4 16 9 WSW 1019,7 0,0
29.09.2020 12:00:00 16,5 11,0 9 5 21 11 SW 1019,6 0,0
29.09.2020 11:00:00 16,3 10,6 6 3 13 7 E 1019,9 0,0
29.09.2020 10:00:00 14,1 10,9 5 3 9 5 E 1020,3 0,0
29.09.2020 09:00:00 11,9 10,6 3 2 5 3 SSE 1020,0 0,0
29.09.2020 08:00:00 10,8 10,2 3 2 6 3 NNE 1019,9 0,0
29.09.2020 07:00:00 10,8 10,0 5 3 6 3 S 1019,7 0,0
29.09.2020 06:00:00 10,8 9,9 0 0 7 4 N 1020,0 0,0
29.09.2020 05:00:00 10,6 10,0 3 2 7 4 SE 1019,9 0,0
29.09.2020 04:00:00 11,2 9,9 0 0 4 2 N 1019,5 0,0
29.09.2020 03:00:00 11,8 10,7 4 2 7 4 NNW 1019,7 0,0
29.09.2020 02:00:00 12,1 11,0 4 2 5 3 WNW 1019,7 0,0
29.09.2020 01:00:00 12,0 10,7 0 0 4 2 N 1019,5 0,0
29.09.2020 00:00:00 12,2 10,9 0 0 6 3 N 1019,7 0,0
28.09.2020 23:00:00 12,3 10,9 0 0 5 3 N 1019,2 0,0
28.09.2020 22:00:00 12,8 10,7 0 0 8 5 N 1018,4 0,2
28.09.2020 21:00:00 12,9 11,0 2 1 5 3 NNW 1017,3 0,0
28.09.2020 20:00:00 13,4 10,6 0 0 5 3 N 1016,3 0,0
28.09.2020 19:00:00 14,1 9,7 2 1 6 3 S 1015,0 0,0
28.09.2020 18:00:00 14,8 9,4 6 3 16 9 WSW 1014,2 0,0
28.09.2020 17:00:00 16,5 8,2 5 3 12 7 E 1013,6 0,0
28.09.2020 16:00:00 15,4 8,4 4 2 18 10 NNW 1013,5 0,0
28.09.2020 15:00:00 14,8 8,1 4 2 11 6 NE 1013,4 0,0
28.09.2020 14:00:00 13,9 7,2 7 4 13 7 ENE 1013,4 0,0
28.09.2020 13:00:00 12,8 8,3 4 2 15 8 NW 1013,3 0,0
28.09.2020 12:00:00 11,9 8,2 9 5 - - NNE 1013,4 -
28.09.2020 11:00:00 11,6 7,3 4 2 7 4 NE 1012,8 0,0
28.09.2020 10:00:00 10,4 7,8 2 1 6 3 WNW 1012,2 0,0
28.09.2020 09:00:00 9,1 7,4 0 0 5 3 N 1012,4 0,0
28.09.2020 08:00:00 8,5 7,9 4 2 5 3 SSW 1012,0 0,0
28.09.2020 07:00:00 8,3 7,4 2 1 5 3 S 1011,6 0,2
28.09.2020 06:00:00 8,4 7,6 0 0 4 2 N 1011,4 0,0
28.09.2020 05:00:00 8,4 7,6 0 0 6 3 N 1010,9 0,0
28.09.2020 04:00:00 8,4 7,6 0 0 4 2 N 1010,8 0,0
28.09.2020 03:00:00 8,6 8,0 4 2 8 4 NNE 1011,0 0,2
28.09.2020 02:00:00 8,5 7,6 2 1 6 3 S 1011,0 0,0
28.09.2020 01:00:00 8,5 7,7 3 2 5 3 SSW 1011,2 0,2
28.09.2020 00:00:00 8,4 7,5 2 1 5 3 SSE 1011,0 0,2
27.09.2020 23:00:00 8,5 7,6 0 0 4 2 N 1010,8 0,0
27.09.2020 22:00:00 8,7 7,6 2 1 8 4 WSW 1010,6 0,2
27.09.2020 21:00:00 9,0 7,6 0 0 5 3 N 1010,3 0,4
27.09.2020 20:00:00 9,3 6,9 2 1 5 3 ESE 1009,9 -
27.09.2020 19:00:00 9,8 6,3 4 2 17 9 W 1009,4 0,0
27.09.2020 18:00:00 10,6 7,1 10 5 14 8 WSW 1009,1 0,0
27.09.2020 17:00:00 10,4 5,8 11 6 20 11 WSW 1009,1 0,0
27.09.2020 16:00:00 11,2 6,5 6 3 17 9 S 1009,0 0,2
27.09.2020 15:00:00 10,8 5,3 8 5 21 11 SSW 1008,9 0,0
27.09.2020 14:00:00 10,7 5,7 15 8 20 11 SW 1009,0 0,0
27.09.2020 13:00:00 10,4 6,3 13 7 21 11 SW 1009,1 0,0
27.09.2020 12:00:00 9,2 6,6 10 5 17 9 SW 1009,8 0,0
27.09.2020 11:00:00 8,2 6,2 6 3 16 8 SW 1010,1 0,0
27.09.2020 10:00:00 6,4 5,0 0 0 8 5 N 1010,3 0,0
27.09.2020 09:00:00 5,5 4,8 4 2 6 3 SSW 1010,0 0,0
27.09.2020 08:00:00 4,9 4,3 2 1 8 4 SE 1009,9 0,0
27.09.2020 07:00:00 5,0 4,1 3 2 5 3 SW 1009,3 0,0
27.09.2020 06:00:00 4,9 4,3 3 2 7 4 S 1008,8 0,0
27.09.2020 05:00:00 4,6 4,0 3 2 11 6 E 1009,2 0,0
27.09.2020 04:00:00 4,8 4,4 8 4 14 8 N 1009,9 0,0
27.09.2020 03:00:00 4,4 4,1 2 1 4 2 NE 1010,0 0,0
27.09.2020 02:00:00 4,6 4,2 0 0 6 3 N 1010,1 0,0
27.09.2020 01:00:00 4,4 4,0 0 0 5 3 N 1009,7 0,0
27.09.2020 00:00:00 4,9 4,3 0 0 5 3 N 1009,2 0,0
26.09.2020 23:00:00 5,7 5,1 3 2 5 3 NE 1009,0 0,0
26.09.2020 22:00:00 6,3 5,9 2 1 6 3 WSW 1008,9 0,0
26.09.2020 21:00:00 6,5 5,8 3 2 6 3 NNE 1009,0 0,0
26.09.2020 20:00:00 7,6 6,2 0 0 9 5 N 1009,1 0,0
26.09.2020 19:00:00 8,6 5,7 2 1 8 4 WSW 1009,3 0,0
26.09.2020 18:00:00 8,5 6,1 6 3 12 6 WNW 1009,9 0,6
26.09.2020 17:00:00 8,6 6,4 5 3 16 9 SW 1010,5 0,2
26.09.2020 16:00:00 8,5 6,6 8 4 28 15 W 1010,4 1,4
26.09.2020 15:00:00 11,0 5,3 5 3 13 7 NW 1009,6 0,0
26.09.2020 14:00:00 10,9 6,4 6 3 25 13 S 1010,5 0,2
26.09.2020 13:00:00 11,3 5,6 9 5 16 8 SSW 1010,2 0,2
26.09.2020 12:00:00 11,9 6,6 4 2 11 6 E 1010,4 0,0
26.09.2020 11:00:00 10,4 6,5 3 2 13 7 E 1011,5 0,0
26.09.2020 10:00:00 8,1 6,4 2 1 6 3 WSW 1012,0 0,0
26.09.2020 09:00:00 6,8 6,1 4 2 9 5 WNW 1012,7 0,0
26.09.2020 08:00:00 6,6 5,7 7 4 21 11 E 1013,2 0,8
26.09.2020 07:00:00 6,8 5,4 5 3 8 5 ENE 1013,2 2,0
26.09.2020 06:00:00 7,3 6,6 0 0 11 6 N 1012,7 3,2
26.09.2020 05:00:00 7,3 6,6 4 2 14 8 SSE 1012,2 1,4
26.09.2020 04:00:00 7,1 6,0 9 5 15 8 N 1012,1 2,1
26.09.2020 03:00:00 7,1 6,2 6 3 11 6 NW 1011,6 1,6
26.09.2020 02:00:00 7,5 6,8 2 1 8 4 WNW 1011,8 2,8
26.09.2020 01:00:00 7,7 6,8 3 2 9 5 SSE 1011,2 1,8
26.09.2020 00:00:00 7,7 6,5 4 2 11 6 SE 1010,9 4,1
25.09.2020 23:00:00 8,0 6,8 5 3 28 15 ENE 1010,6 1,4
25.09.2020 22:00:00 8,5 6,6 14 8 41 22 NNE 1009,9 0,6
25.09.2020 21:00:00 9,1 7,7 5 3 14 7 S 1008,3 0,8
25.09.2020 20:00:00 9,2 7,3 8 4 29 16 W 1008,1 2,0
25.09.2020 19:00:00 9,8 8,1 10 6 22 12 W 1007,4 0,2
25.09.2020 18:00:00 10,0 7,8 6 4 30 16 SSW 1006,7 0,2
25.09.2020 17:00:00 10,9 8,3 15 8 35 19 NNE 1006,0 2,2
25.09.2020 16:00:00 13,4 9,4 4 2 22 12 SW 1005,2 0,2
25.09.2020 15:00:00 11,8 7,9 6 4 29 16 S 1005,6 0,8
25.09.2020 14:00:00 11,1 8,8 12 6 26 14 ENE 1005,0 0,6
25.09.2020 13:00:00 12,6 9,8 7 4 14 8 NNW 1004,8 0,0
25.09.2020 12:00:00 12,5 9,0 12 6 27 15 NE 1005,6 0,0
25.09.2020 11:00:00 11,9 9,5 16 9 27 14 NE 1006,2 0,0
25.09.2020 10:00:00 11,3 8,9 11 6 17 9 NE 1006,8 0,0
25.09.2020 09:00:00 10,7 9,5 9 5 13 7 NE 1006,5 0,2
25.09.2020 08:00:00 10,7 9,1 0 0 15 8 N 1006,8 0,8
25.09.2020 07:00:00 11,7 6,8 11 6 28 15 S 1007,0 1,0
25.09.2020 06:00:00 12,3 8,8 13 7 54 29 S 1007,5 0,8
25.09.2020 05:00:00 14,1 10,9 13 7 29 16 SSW 1005,8 1,2
25.09.2020 04:00:00 14,4 12,4 6 3 12 7 SE 1003,8 0,0
25.09.2020 03:00:00 14,2 12,4 2 1 11 6 E 1005,0 0,0
25.09.2020 02:00:00 14,0 12,4 5 3 16 9 SSE 1006,2 0,0
25.09.2020 01:00:00 17,1 11,8 10 5 21 12 S 1006,1 0,0
25.09.2020 00:00:00 16,1 15,5 3 1 10 6 SW 1006,5 0,0
24.09.2020 23:00:00 16,4 15,6 0 0 13 7 N 1006,5 0,0
24.09.2020 22:00:00 16,6 16,1 4 2 7 4 NNW 1007,0 0,6
24.09.2020 21:00:00 16,8 16,2 5 3 8 4 SSE 1006,9 0,2
24.09.2020 20:00:00 17,2 16,4 2 1 5 3 SW 1006,3 0,0
24.09.2020 19:00:00 17,9 16,6 4 2 8 4 NNE 1006,1 1,0
24.09.2020 18:00:00 18,8 16,2 3 1 13 7 NNE 1006,3 0,0
24.09.2020 17:00:00 19,4 16,8 8 5 11 6 NE 1007,0 0,2
24.09.2020 16:00:00 19,8 16,2 6 4 12 7 NNE 1007,7 0,0
24.09.2020 15:00:00 20,0 15,6 2 1 11 6 SSW 1008,0 0,6
24.09.2020 14:00:00 20,6 14,9 2 1 12 7 ESE 1008,3 0,0
24.09.2020 13:00:00 19,6 15,7 4 2 18 10 SW 1009,2 0,2
24.09.2020 12:00:00 17,7 16,0 5 3 23 13 ESE 1010,4 1,2
24.09.2020 11:00:00 17,8 14,9 4 2 18 10 NNE 1011,1 0,0
24.09.2020 10:00:00 17,1 15,3 5 3 21 11 NNE 1010,7 0,0
24.09.2020 09:00:00 15,7 15,2 4 2 6 4 NE 1011,0 0,0
24.09.2020 08:00:00 14,8 14,0 0 0 4 2 N 1011,2 0,0
24.09.2020 07:00:00 15,7 14,9 0 0 5 3 N 1011,4 0,0
24.09.2020 06:00:00 16,3 15,3 4 2 9 5 E 1011,4 0,0
24.09.2020 05:00:00 16,6 15,5 2 1 7 4 ENE 1011,4 0,0
24.09.2020 04:00:00 16,8 15,8 4 2 6 4 NE 1011,6 0,2
24.09.2020 03:00:00 16,7 15,9 8 4 11 6 NE 1011,4 0,0
24.09.2020 02:00:00 16,9 15,4 4 2 9 5 SE 1011,2 0,2
24.09.2020 01:00:00 17,4 15,4 4 2 28 15 ENE 1011,2 0,2
24.09.2020 00:00:00 17,3 15,1 5 3 7 4 W 1010,3 0,0
23.09.2020 23:00:00 17,4 15,4 0 0 24 13 N 1010,2 -

tt = Température de l'air
td = dewpoint
ff = Vitesse du vent
fx = gusts
dd = Direction du vent
ppp = reduced air pressure
rr = Quantités de précipitations

stations d'obs. à proximité